map of DNA home
DNA - Airport
Location
City:  Okinawa, Ryukyu Island, Okinawa, Japan
Name:Kadena AB
ICAO:RODN
IATA:DNA

Details
Type:Airport (Aerodrome, Airfield)
Use:Military, International (customs port of entry)
Latitude:2621'20"N (26.355612)
Longitude:12746'03"E (127.767633)
Datum:WGS 1984
Elevation:143 ft (44 m)
Variation:5.35W (WMM2015 magnetic declination)
-0.09 annual change
Runways:2
Longest:12100 × 300 ft (3688 × 91.5 m), paved

Time
Time Zone:UTC+9
Local Time:

Weather
METAR:RODN 182156Z AUTO 05003KT 10SM CLR 25/23 A2996 RMK AO2 SLP151 T02460232 $

Related Locations
Nearby:
Farthest:SSPS: 12431 mi / 20005 km
Palmas, PR, BR

Find:

   beyond  
but within

Other Information
Maps:
NOTAMs:
Links:
Sources:

  
  • flag of Japan
  • flag of Okinawa
  • flag of Okinawa
  

Airport Diagram

Airport diagram for DNA

Larger airport diagram (OBSOLETE) from NGA

Sectional Chart

Flight Planning
at skyvector.com

Satellite Image

Google Maps Satellite view

 

Copyright © 2004-2018 Karl L. Swartz. All rights reserved.
The Great Circle Mapper name and logo are trademarks of the Great Circle Mapper.
All other trademarks mentioned herein belong to their respective owners.
Please see credits for attibutions and further copyright information.

  Follow gcmap on Facebook Follow gcmap on Twitter Follow gcmap on Google+ GCmap on LinkedIn

hCard Microformat

Geo Microformat